sensor_id;sensor_type;location;lat;lon;timestamp;pressure;altitude;pressure_sealevel;temperature;humidity
48892;BME280;50130;52.150;5.236;2022-07-22T00:01:35;102002.0;;;17.04;96.4
48892;BME280;50130;52.150;5.236;2022-07-22T00:03:21;102003.0;;;17.09;95.97
48892;BME280;50130;52.150;5.236;2022-07-22T00:05:08;101999.0;;;17.03;96.19
48892;BME280;50130;52.150;5.236;2022-07-22T00:08:41;101999.0;;;17.02;96.13
48892;BME280;50130;52.150;5.236;2022-07-22T00:10:28;102001.0;;;17.12;96.11
48892;BME280;50130;52.150;5.236;2022-07-22T00:12:15;101999.0;;;17.09;96.29
48892;BME280;50130;52.150;5.236;2022-07-22T00:14:01;102003.0;;;17.07;96.75
48892;BME280;50130;52.150;5.236;2022-07-22T00:15:48;102007.0;;;17.07;96.71
48892;BME280;50130;52.150;5.236;2022-07-22T00:17:36;102003.0;;;17.09;96.35
48892;BME280;50130;52.150;5.236;2022-07-22T00:21:13;102002.0;;;17.23;95.99
48892;BME280;50130;52.150;5.236;2022-07-22T00:22:59;102005.0;;;17.28;95.44
48892;BME280;50130;52.150;5.236;2022-07-22T00:24:46;102003.0;;;17.39;95.09
48892;BME280;50130;52.150;5.236;2022-07-22T00:26:32;102005.0;;;17.39;95.38
48892;BME280;50130;52.150;5.236;2022-07-22T00:28:19;102001.0;;;17.21;95.01
48892;BME280;50130;52.150;5.236;2022-07-22T00:30:07;101999.0;;;17.16;95.1
48892;BME280;50130;52.150;5.236;2022-07-22T00:33:41;102002.0;;;17.32;94.51
48892;BME280;50130;52.150;5.236;2022-07-22T00:35:28;102000.0;;;17.31;95.59
48892;BME280;50130;52.150;5.236;2022-07-22T00:37:15;102000.0;;;17.3;95.04
48892;BME280;50130;52.150;5.236;2022-07-22T00:39:02;102002.0;;;17.37;94.74
48892;BME280;50130;52.150;5.236;2022-07-22T00:40:49;102001.0;;;17.36;94.5
48892;BME280;50130;52.150;5.236;2022-07-22T00:42:36;101998.0;;;17.39;94.82
48892;BME280;50130;52.150;5.236;2022-07-22T00:46:09;102001.0;;;17.43;94.8
48892;BME280;50130;52.150;5.236;2022-07-22T00:47:55;101997.0;;;17.36;94.73
48892;BME280;50130;52.150;5.236;2022-07-22T00:49:41;101998.0;;;17.54;94.15
48892;BME280;50130;52.150;5.236;2022-07-22T00:51:28;101990.0;;;17.61;93.41
48892;BME280;50130;52.150;5.236;2022-07-22T00:53:16;101982.0;;;17.7;92.53
48892;BME280;50130;52.150;5.236;2022-07-22T00:56:52;101987.0;;;17.5;93.11
48892;BME280;50130;52.150;5.236;2022-07-22T00:58:38;101983.0;;;17.53;93.98
48892;BME280;50130;52.150;5.236;2022-07-22T01:00:27;101990.0;;;17.52;93.84
48892;BME280;50130;52.150;5.236;2022-07-22T01:02:13;101985.0;;;17.59;93.25
48892;BME280;50130;52.150;5.236;2022-07-22T01:04:00;101981.0;;;17.36;94.04
48892;BME280;50130;52.150;5.236;2022-07-22T01:05:47;101983.0;;;17.31;94.41
48892;BME280;50130;52.150;5.236;2022-07-22T01:09:20;101989.0;;;17.57;93.4
48892;BME280;50130;52.150;5.236;2022-07-22T01:11:07;101990.0;;;17.61;93.59
48892;BME280;50130;52.150;5.236;2022-07-22T01:12:54;101990.0;;;17.45;94.0
48892;BME280;50130;52.150;5.236;2022-07-22T01:14:41;101990.0;;;17.43;94.41
48892;BME280;50130;52.150;5.236;2022-07-22T01:16:29;101986.0;;;17.22;94.61
48892;BME280;50130;52.150;5.236;2022-07-22T01:18:15;101985.0;;;17.18;95.17
48892;BME280;50130;52.150;5.236;2022-07-22T01:21:50;101985.0;;;17.18;95.38
48892;BME280;50130;52.150;5.236;2022-07-22T01:23:37;101984.0;;;17.16;95.73
48892;BME280;50130;52.150;5.236;2022-07-22T01:25:25;101985.0;;;17.2;95.46
48892;BME280;50130;52.150;5.236;2022-07-22T01:27:12;101986.0;;;17.32;95.02
48892;BME280;50130;52.150;5.236;2022-07-22T01:28:58;101986.0;;;17.32;95.05
48892;BME280;50130;52.150;5.236;2022-07-22T01:30:44;101980.0;;;17.16;95.29
48892;BME280;50130;52.150;5.236;2022-07-22T01:34:16;101983.0;;;17.27;95.17
48892;BME280;50130;52.150;5.236;2022-07-22T01:36:03;101984.0;;;17.11;95.74
48892;BME280;50130;52.150;5.236;2022-07-22T01:37:51;101988.0;;;17.22;95.77
48892;BME280;50130;52.150;5.236;2022-07-22T01:39:37;101983.0;;;17.16;95.95
48892;BME280;50130;52.150;5.236;2022-07-22T01:41:23;101978.0;;;17.18;95.62
48892;BME280;50130;52.150;5.236;2022-07-22T01:44:56;101978.0;;;17.18;95.27
48892;BME280;50130;52.150;5.236;2022-07-22T01:46:42;101975.0;;;17.07;96.05
48892;BME280;50130;52.150;5.236;2022-07-22T01:48:29;101977.0;;;17.18;95.75
48892;BME280;50130;52.150;5.236;2022-07-22T01:50:16;101976.0;;;17.25;95.48
48892;BME280;50130;52.150;5.236;2022-07-22T01:52:03;101978.0;;;17.36;95.05
48892;BME280;50130;52.150;5.236;2022-07-22T01:53:50;101978.0;;;17.16;95.82
48892;BME280;50130;52.150;5.236;2022-07-22T01:57:24;101977.0;;;17.2;95.59
48892;BME280;50130;52.150;5.236;2022-07-22T01:59:11;101977.0;;;17.11;96.19
48892;BME280;50130;52.150;5.236;2022-07-22T02:00:58;101976.0;;;17.11;96.0
48892;BME280;50130;52.150;5.236;2022-07-22T02:02:45;101975.0;;;17.04;96.15
48892;BME280;50130;52.150;5.236;2022-07-22T02:04:32;101975.0;;;17.11;95.95
48892;BME280;50130;52.150;5.236;2022-07-22T02:06:18;101976.0;;;17.13;95.59
48892;BME280;50130;52.150;5.236;2022-07-22T02:09:55;101976.0;;;17.13;95.95
48892;BME280;50130;52.150;5.236;2022-07-22T02:11:42;101971.0;;;17.13;96.19
48892;BME280;50130;52.150;5.236;2022-07-22T02:13:29;101969.0;;;17.16;96.04
48892;BME280;50130;52.150;5.236;2022-07-22T02:15:15;101969.0;;;17.11;96.46
48892;BME280;50130;52.150;5.236;2022-07-22T02:17:01;101967.0;;;17.29;95.38
48892;BME280;50130;52.150;5.236;2022-07-22T02:20:35;101966.0;;;17.36;95.37
48892;BME280;50130;52.150;5.236;2022-07-22T02:22:22;101964.0;;;17.25;95.73
48892;BME280;50130;52.150;5.236;2022-07-22T02:24:09;101956.0;;;17.14;95.98
48892;BME280;50130;52.150;5.236;2022-07-22T02:25:55;101955.0;;;17.11;96.16
48892;BME280;50130;52.150;5.236;2022-07-22T02:27:42;101961.0;;;17.16;96.19
48892;BME280;50130;52.150;5.236;2022-07-22T02:29:28;101959.0;;;17.2;95.66
48892;BME280;50130;52.150;5.236;2022-07-22T02:33:01;101958.0;;;17.09;95.45
48892;BME280;50130;52.150;5.236;2022-07-22T02:34:48;101956.0;;;17.2;95.02
48892;BME280;50130;52.150;5.236;2022-07-22T02:36:34;101950.0;;;17.27;95.01
48892;BME280;50130;52.150;5.236;2022-07-22T02:38:20;101949.0;;;17.2;95.53
48892;BME280;50130;52.150;5.236;2022-07-22T02:40:08;101950.0;;;17.18;95.66
48892;BME280;50130;52.150;5.236;2022-07-22T02:41:55;101949.0;;;17.16;95.6
48892;BME280;50130;52.150;5.236;2022-07-22T02:45:28;101951.0;;;17.2;95.48
48892;BME280;50130;52.150;5.236;2022-07-22T02:47:15;101955.0;;;17.22;96.0
48892;BME280;50130;52.150;5.236;2022-07-22T02:49:01;101956.0;;;17.21;96.03
48892;BME280;50130;52.150;5.236;2022-07-22T02:50:49;101955.0;;;17.18;95.69
48892;BME280;50130;52.150;5.236;2022-07-22T02:52:36;101953.0;;;17.21;95.03
48892;BME280;50130;52.150;5.236;2022-07-22T02:56:10;101953.0;;;17.18;95.51
48892;BME280;50130;52.150;5.236;2022-07-22T02:57:56;101957.0;;;17.23;95.26
48892;BME280;50130;52.150;5.236;2022-07-22T02:59:42;101959.0;;;17.27;94.9
48892;BME280;50130;52.150;5.236;2022-07-22T03:01:29;101963.0;;;17.3;94.89
48892;BME280;50130;52.150;5.236;2022-07-22T03:03:15;101960.0;;;17.28;94.99
48892;BME280;50130;52.150;5.236;2022-07-22T03:05:02;101960.0;;;17.39;94.88
48892;BME280;50130;52.150;5.236;2022-07-22T03:08:36;101962.0;;;17.37;95.28
48892;BME280;50130;52.150;5.236;2022-07-22T03:10:23;101961.0;;;17.22;95.51
48892;BME280;50130;52.150;5.236;2022-07-22T03:12:09;101960.0;;;17.27;95.63
48892;BME280;50130;52.150;5.236;2022-07-22T03:13:56;101961.0;;;17.28;95.62
48892;BME280;50130;52.150;5.236;2022-07-22T03:15:43;101958.0;;;17.29;95.43
48892;BME280;50130;52.150;5.236;2022-07-22T03:17:33;101959.0;;;17.29;94.87
48892;BME280;50130;52.150;5.236;2022-07-22T03:21:06;101961.0;;;17.41;94.49
48892;BME280;50130;52.150;5.236;2022-07-22T03:22:52;101964.0;;;17.43;94.52
48892;BME280;50130;52.150;5.236;2022-07-22T03:24:39;101959.0;;;17.37;94.67
48892;BME280;50130;52.150;5.236;2022-07-22T03:26:25;101960.0;;;17.59;93.65
48892;BME280;50130;52.150;5.236;2022-07-22T03:28:12;101963.0;;;17.34;93.85
48892;BME280;50130;52.150;5.236;2022-07-22T03:29:58;101963.0;;;17.46;93.2
48892;BME280;50130;52.150;5.236;2022-07-22T03:33:30;101966.0;;;17.22;94.12
48892;BME280;50130;52.150;5.236;2022-07-22T03:35:17;101965.0;;;17.25;94.15
48892;BME280;50130;52.150;5.236;2022-07-22T03:37:02;101969.0;;;17.21;94.39
48892;BME280;50130;52.150;5.236;2022-07-22T03:38:49;101965.0;;;17.21;94.5
48892;BME280;50130;52.150;5.236;2022-07-22T03:40:35;101961.0;;;17.04;95.27
48892;BME280;50130;52.150;5.236;2022-07-22T03:44:07;101959.0;;;17.03;95.42
48892;BME280;50130;52.150;5.236;2022-07-22T03:45:53;101965.0;;;17.11;94.89
48892;BME280;50130;52.150;5.236;2022-07-22T03:47:40;101962.0;;;17.05;94.28
48892;BME280;50130;52.150;5.236;2022-07-22T03:49:30;101963.0;;;17.03;94.49
48892;BME280;50130;52.150;5.236;2022-07-22T03:51:17;101965.0;;;17.11;93.67
48892;BME280;50130;52.150;5.236;2022-07-22T03:53:03;101967.0;;;17.04;94.24
48892;BME280;50130;52.150;5.236;2022-07-22T03:56:36;101966.0;;;16.98;94.41
48892;BME280;50130;52.150;5.236;2022-07-22T03:58:22;101963.0;;;17.02;93.15
48892;BME280;50130;52.150;5.236;2022-07-22T04:00:09;101964.0;;;17.11;92.23
48892;BME280;50130;52.150;5.236;2022-07-22T04:01:56;101962.0;;;17.0;92.99
48892;BME280;50130;52.150;5.236;2022-07-22T04:03:42;101960.0;;;16.98;94.08
48892;BME280;50130;52.150;5.236;2022-07-22T04:07:15;101965.0;;;17.05;93.67
48892;BME280;50130;52.150;5.236;2022-07-22T04:09:02;101962.0;;;17.2;93.03
48892;BME280;50130;52.150;5.236;2022-07-22T04:10:48;101966.0;;;17.37;92.93
48892;BME280;50130;52.150;5.236;2022-07-22T04:12:36;101962.0;;;17.14;92.61
48892;BME280;50130;52.150;5.236;2022-07-22T04:14:24;101960.0;;;17.11;93.19
48892;BME280;50130;52.150;5.236;2022-07-22T04:16:10;101962.0;;;17.16;93.28
48892;BME280;50130;52.150;5.236;2022-07-22T04:19:43;101961.0;;;17.07;93.59
48892;BME280;50130;52.150;5.236;2022-07-22T04:21:30;101956.0;;;17.07;93.4
48892;BME280;50130;52.150;5.236;2022-07-22T04:23:17;101960.0;;;17.06;93.61
48892;BME280;50130;52.150;5.236;2022-07-22T04:25:05;101955.0;;;17.06;93.21
48892;BME280;50130;52.150;5.236;2022-07-22T04:26:51;101952.0;;;17.07;93.46
48892;BME280;50130;52.150;5.236;2022-07-22T04:28:37;101952.0;;;17.03;93.98
48892;BME280;50130;52.150;5.236;2022-07-22T04:32:09;101951.0;;;17.11;93.94
48892;BME280;50130;52.150;5.236;2022-07-22T04:33:56;101947.0;;;17.02;94.85
48892;BME280;50130;52.150;5.236;2022-07-22T04:35:44;101952.0;;;17.2;94.53
48892;BME280;50130;52.150;5.236;2022-07-22T04:37:30;101946.0;;;17.07;94.91
48892;BME280;50130;52.150;5.236;2022-07-22T04:39:18;101944.0;;;17.09;95.14
48892;BME280;50130;52.150;5.236;2022-07-22T04:41:05;101943.0;;;17.14;94.78
48892;BME280;50130;52.150;5.236;2022-07-22T04:44:38;101940.0;;;17.16;94.27
48892;BME280;50130;52.150;5.236;2022-07-22T04:46:24;101943.0;;;17.36;93.96
48892;BME280;50130;52.150;5.236;2022-07-22T04:48:11;101942.0;;;17.27;94.03
48892;BME280;50130;52.150;5.236;2022-07-22T04:49:57;101945.0;;;17.18;94.42
48892;BME280;50130;52.150;5.236;2022-07-22T04:51:43;101943.0;;;17.23;93.96
48892;BME280;50130;52.150;5.236;2022-07-22T04:55:16;101935.0;;;17.25;94.1
48892;BME280;50130;52.150;5.236;2022-07-22T04:57:03;101933.0;;;17.34;92.85
48892;BME280;50130;52.150;5.236;2022-07-22T04:58:51;101935.0;;;17.34;92.79
48892;BME280;50130;52.150;5.236;2022-07-22T05:00:38;101938.0;;;17.36;92.96
48892;BME280;50130;52.150;5.236;2022-07-22T05:02:24;101937.0;;;17.38;92.89
48892;BME280;50130;52.150;5.236;2022-07-22T05:04:11;101941.0;;;17.38;93.5
48892;BME280;50130;52.150;5.236;2022-07-22T05:07:45;101940.0;;;17.5;93.33
48892;BME280;50130;52.150;5.236;2022-07-22T05:09:31;101940.0;;;17.5;92.46
48892;BME280;50130;52.150;5.236;2022-07-22T05:11:18;101946.0;;;17.54;93.22
48892;BME280;50130;52.150;5.236;2022-07-22T05:13:04;101944.0;;;17.62;91.88
48892;BME280;50130;52.150;5.236;2022-07-22T05:14:51;101948.0;;;17.72;91.3
48892;BME280;50130;52.150;5.236;2022-07-22T05:16:38;101949.0;;;17.82;92.78
48892;BME280;50130;52.150;5.236;2022-07-22T05:20:12;101955.0;;;17.88;91.26
48892;BME280;50130;52.150;5.236;2022-07-22T05:21:58;101952.0;;;17.78;91.37
48892;BME280;50130;52.150;5.236;2022-07-22T05:23:44;101956.0;;;17.81;91.83
48892;BME280;50130;52.150;5.236;2022-07-22T05:25:31;101955.0;;;17.81;92.41
48892;BME280;50130;52.150;5.236;2022-07-22T05:27:18;101957.0;;;17.84;91.89
48892;BME280;50130;52.150;5.236;2022-07-22T05:30:52;101955.0;;;17.89;91.21
48892;BME280;50130;52.150;5.236;2022-07-22T05:32:38;101960.0;;;17.93;91.46
48892;BME280;50130;52.150;5.236;2022-07-22T05:34:24;101963.0;;;17.91;91.3
48892;BME280;50130;52.150;5.236;2022-07-22T05:36:10;101962.0;;;18.06;90.82
48892;BME280;50130;52.150;5.236;2022-07-22T05:37:58;101962.0;;;18.06;90.44
48892;BME280;50130;52.150;5.236;2022-07-22T05:39:45;101962.0;;;18.18;90.32
48892;BME280;50130;52.150;5.236;2022-07-22T05:43:18;101960.0;;;18.16;90.82
48892;BME280;50130;52.150;5.236;2022-07-22T05:45:06;101962.0;;;18.13;87.37
48892;BME280;50130;52.150;5.236;2022-07-22T05:46:53;101965.0;;;18.18;86.0
48892;BME280;50130;52.150;5.236;2022-07-22T05:48:40;101968.0;;;18.27;87.19
48892;BME280;50130;52.150;5.236;2022-07-22T05:50:27;101973.0;;;18.41;87.19
48892;BME280;50130;52.150;5.236;2022-07-22T05:52:14;101974.0;;;18.41;87.58
48892;BME280;50130;52.150;5.236;2022-07-22T05:55:49;101966.0;;;18.59;88.17
48892;BME280;50130;52.150;5.236;2022-07-22T05:57:36;101971.0;;;18.47;85.21
48892;BME280;50130;52.150;5.236;2022-07-22T05:59:22;101973.0;;;18.61;85.34
48892;BME280;50130;52.150;5.236;2022-07-22T06:01:08;101974.0;;;18.66;85.07
48892;BME280;50130;52.150;5.236;2022-07-22T06:02:56;101972.0;;;18.66;85.17
48892;BME280;50130;52.150;5.236;2022-07-22T06:06:28;101970.0;;;18.63;85.08
48892;BME280;50130;52.150;5.236;2022-07-22T06:08:14;101971.0;;;18.62;84.73
48892;BME280;50130;52.150;5.236;2022-07-22T06:10:01;101970.0;;;18.55;85.27
48892;BME280;50130;52.150;5.236;2022-07-22T06:11:47;101963.0;;;18.61;85.39
48892;BME280;50130;52.150;5.236;2022-07-22T06:13:33;101969.0;;;18.71;85.97
48892;BME280;50130;52.150;5.236;2022-07-22T06:15:20;101967.0;;;18.66;84.48
48892;BME280;50130;52.150;5.236;2022-07-22T06:18:52;101965.0;;;18.7;82.08
48892;BME280;50130;52.150;5.236;2022-07-22T06:20:39;101973.0;;;18.66;81.17
48892;BME280;50130;52.150;5.236;2022-07-22T06:22:26;101970.0;;;18.87;80.05
48892;BME280;50130;52.150;5.236;2022-07-22T06:24:12;101974.0;;;18.84;81.47
48892;BME280;50130;52.150;5.236;2022-07-22T06:25:58;101980.0;;;18.84;82.64
48892;BME280;50130;52.150;5.236;2022-07-22T06:29:30;101977.0;;;18.81;85.1
48892;BME280;50130;52.150;5.236;2022-07-22T06:31:18;101964.0;;;18.91;84.92
48892;BME280;50130;52.150;5.236;2022-07-22T06:33:04;101965.0;;;18.93;83.45
48892;BME280;50130;52.150;5.236;2022-07-22T06:34:50;101963.0;;;19.09;82.55
48892;BME280;50130;52.150;5.236;2022-07-22T06:36:36;101962.0;;;18.95;83.27
48892;BME280;50130;52.150;5.236;2022-07-22T06:38:23;101965.0;;;19.11;83.31
48892;BME280;50130;52.150;5.236;2022-07-22T06:41:58;101970.0;;;19.09;85.85
48892;BME280;50130;52.150;5.236;2022-07-22T06:43:44;101966.0;;;19.12;84.95
48892;BME280;50130;52.150;5.236;2022-07-22T06:45:30;101966.0;;;19.16;82.44
48892;BME280;50130;52.150;5.236;2022-07-22T06:47:17;101967.0;;;19.32;82.03
48892;BME280;50130;52.150;5.236;2022-07-22T06:49:03;101964.0;;;19.23;77.94
48892;BME280;50130;52.150;5.236;2022-07-22T06:50:50;101966.0;;;19.23;78.22
48892;BME280;50130;52.150;5.236;2022-07-22T06:54:26;101959.0;;;19.13;76.31
48892;BME280;50130;52.150;5.236;2022-07-22T06:56:12;101962.0;;;19.28;79.47
48892;BME280;50130;52.150;5.236;2022-07-22T06:57:58;101956.0;;;19.3;80.19
48892;BME280;50130;52.150;5.236;2022-07-22T06:59:44;101963.0;;;19.32;78.62
48892;BME280;50130;52.150;5.236;2022-07-22T07:01:30;101964.0;;;19.43;78.14
48892;BME280;50130;52.150;5.236;2022-07-22T07:05:05;101962.0;;;19.43;76.83
48892;BME280;50130;52.150;5.236;2022-07-22T07:06:51;101969.0;;;19.56;75.99
48892;BME280;50130;52.150;5.236;2022-07-22T07:08:39;101964.0;;;19.55;74.39
48892;BME280;50130;52.150;5.236;2022-07-22T07:10:26;101960.0;;;19.61;75.22
48892;BME280;50130;52.150;5.236;2022-07-22T07:12:12;101961.0;;;19.64;73.8
48892;BME280;50130;52.150;5.236;2022-07-22T07:13:58;101963.0;;;19.63;73.73
48892;BME280;50130;52.150;5.236;2022-07-22T07:17:32;101962.0;;;19.66;75.8
48892;BME280;50130;52.150;5.236;2022-07-22T07:19:19;101968.0;;;19.75;76.44
48892;BME280;50130;52.150;5.236;2022-07-22T07:21:06;101969.0;;;19.82;70.36
48892;BME280;50130;52.150;5.236;2022-07-22T07:22:52;101971.0;;;19.8;71.06
48892;BME280;50130;52.150;5.236;2022-07-22T07:24:39;101965.0;;;19.75;70.49
48892;BME280;50130;52.150;5.236;2022-07-22T07:26:27;101970.0;;;19.78;72.31
48892;BME280;50130;52.150;5.236;2022-07-22T07:29:59;101971.0;;;19.82;72.98
48892;BME280;50130;52.150;5.236;2022-07-22T07:31:46;101972.0;;;20.05;74.27
48892;BME280;50130;52.150;5.236;2022-07-22T07:33:33;101969.0;;;19.86;71.63
48892;BME280;50130;52.150;5.236;2022-07-22T07:35:20;101969.0;;;20.0;70.56
48892;BME280;50130;52.150;5.236;2022-07-22T07:37:07;101966.0;;;20.13;73.08
48892;BME280;50130;52.150;5.236;2022-07-22T07:38:53;101966.0;;;20.07;70.16
48892;BME280;50130;52.150;5.236;2022-07-22T07:42:26;101970.0;;;20.02;69.64
48892;BME280;50130;52.150;5.236;2022-07-22T07:44:13;101967.0;;;19.91;69.33
48892;BME280;50130;52.150;5.236;2022-07-22T07:46:00;101971.0;;;20.11;71.02
48892;BME280;50130;52.150;5.236;2022-07-22T07:47:47;101969.0;;;20.02;69.22
48892;BME280;50130;52.150;5.236;2022-07-22T07:49:35;101971.0;;;20.07;69.31
48892;BME280;50130;52.150;5.236;2022-07-22T07:53:08;101971.0;;;20.07;70.78
48892;BME280;50130;52.150;5.236;2022-07-22T07:54:55;101969.0;;;20.06;70.05
48892;BME280;50130;52.150;5.236;2022-07-22T07:56:43;101969.0;;;20.06;69.98
48892;BME280;50130;52.150;5.236;2022-07-22T07:58:29;101974.0;;;20.16;70.72
48892;BME280;50130;52.150;5.236;2022-07-22T08:00:17;101974.0;;;20.29;70.69
48892;BME280;50130;52.150;5.236;2022-07-22T08:02:06;101973.0;;;20.23;72.47
48892;BME280;50130;52.150;5.236;2022-07-22T08:05:40;101974.0;;;20.32;72.12
48892;BME280;50130;52.150;5.236;2022-07-22T08:07:27;101972.0;;;20.18;69.58
48892;BME280;50130;52.150;5.236;2022-07-22T08:09:14;101967.0;;;20.18;66.77
48892;BME280;50130;52.150;5.236;2022-07-22T08:11:00;101970.0;;;20.2;68.8
48892;BME280;50130;52.150;5.236;2022-07-22T08:12:47;101975.0;;;20.39;70.42
48892;BME280;50130;52.150;5.236;2022-07-22T08:14:34;101972.0;;;20.46;68.8
48892;BME280;50130;52.150;5.236;2022-07-22T08:18:07;101972.0;;;20.31;68.2
48892;BME280;50130;52.150;5.236;2022-07-22T08:19:54;101972.0;;;20.13;66.77
48892;BME280;50130;52.150;5.236;2022-07-22T08:21:42;101975.0;;;20.43;67.36
48892;BME280;50130;52.150;5.236;2022-07-22T08:23:28;101973.0;;;20.43;68.27
48892;BME280;50130;52.150;5.236;2022-07-22T08:25:15;101973.0;;;20.5;68.44
48892;BME280;50130;52.150;5.236;2022-07-22T08:30:36;101972.0;;;20.52;66.27
48892;BME280;50130;52.150;5.236;2022-07-22T08:32:23;101969.0;;;20.45;66.38
48892;BME280;50130;52.150;5.236;2022-07-22T08:34:09;101971.0;;;20.58;67.98
48892;BME280;50130;52.150;5.236;2022-07-22T08:37:45;101971.0;;;20.51;64.66
48892;BME280;50130;52.150;5.236;2022-07-22T08:41:21;101973.0;;;20.61;65.16
48892;BME280;50130;52.150;5.236;2022-07-22T08:43:10;101970.0;;;20.62;68.59
48892;BME280;50130;52.150;5.236;2022-07-22T08:44:57;101968.0;;;20.52;67.99
48892;BME280;50130;52.150;5.236;2022-07-22T08:46:45;101967.0;;;20.6;67.55
48892;BME280;50130;52.150;5.236;2022-07-22T08:48:31;101971.0;;;20.79;67.59
48892;BME280;50130;52.150;5.236;2022-07-22T08:50:18;101964.0;;;20.76;68.0
48892;BME280;50130;52.150;5.236;2022-07-22T08:53:52;101960.0;;;20.76;62.51
48892;BME280;50130;52.150;5.236;2022-07-22T08:55:41;101953.0;;;20.57;62.28
48892;BME280;50130;52.150;5.236;2022-07-22T08:57:28;101959.0;;;20.68;61.91
48892;BME280;50130;52.150;5.236;2022-07-22T08:59:14;101959.0;;;20.69;61.74
48892;BME280;50130;52.150;5.236;2022-07-22T09:01:07;101958.0;;;20.68;61.7
48892;BME280;50130;52.150;5.236;2022-07-22T09:02:53;101948.0;;;20.73;60.67
48892;BME280;50130;52.150;5.236;2022-07-22T09:04:50;101952.0;;;20.74;62.48
48892;BME280;50130;52.150;5.236;2022-07-22T09:06:48;101956.0;;;20.7;63.89
48892;BME280;50130;52.150;5.236;2022-07-22T09:10:36;101950.0;;;20.81;63.86
48892;BME280;50130;52.150;5.236;2022-07-22T09:12:24;101950.0;;;20.61;60.64
48892;BME280;50130;52.150;5.236;2022-07-22T09:14:12;101955.0;;;20.64;63.05
48892;BME280;50130;52.150;5.236;2022-07-22T09:15:58;101952.0;;;20.65;60.38
48892;BME280;50130;52.150;5.236;2022-07-22T09:17:44;101946.0;;;20.87;61.87
48892;BME280;50130;52.150;5.236;2022-07-22T09:19:34;101951.0;;;20.98;61.96
48892;BME280;50130;52.150;5.236;2022-07-22T09:23:09;101951.0;;;21.18;62.43
48892;BME280;50130;52.150;5.236;2022-07-22T09:24:58;101951.0;;;21.1;61.12
48892;BME280;50130;52.150;5.236;2022-07-22T09:26:44;101953.0;;;21.07;62.35
48892;BME280;50130;52.150;5.236;2022-07-22T09:28:30;101956.0;;;21.05;61.08
48892;BME280;50130;52.150;5.236;2022-07-22T09:30:18;101956.0;;;21.08;62.42
48892;BME280;50130;52.150;5.236;2022-07-22T09:32:06;101953.0;;;21.17;61.7
48892;BME280;50130;52.150;5.236;2022-07-22T09:35:41;101957.0;;;21.26;59.35
48892;BME280;50130;52.150;5.236;2022-07-22T09:37:28;101956.0;;;21.41;59.84
48892;BME280;50130;52.150;5.236;2022-07-22T09:39:24;101951.0;;;21.27;59.26
48892;BME280;50130;52.150;5.236;2022-07-22T09:41:14;101951.0;;;21.39;59.36
48892;BME280;50130;52.150;5.236;2022-07-22T09:43:02;101949.0;;;21.45;60.46
48892;BME280;50130;52.150;5.236;2022-07-22T09:44:50;101951.0;;;21.4;59.04
48892;BME280;50130;52.150;5.236;2022-07-22T09:46:37;101955.0;;;21.66;59.34
48892;BME280;50130;52.150;5.236;2022-07-22T09:50:17;101948.0;;;21.4;56.79
48892;BME280;50130;52.150;5.236;2022-07-22T09:52:06;101946.0;;;21.63;58.47
48892;BME280;50130;52.150;5.236;2022-07-22T09:53:53;101950.0;;;21.62;57.76
48892;BME280;50130;52.150;5.236;2022-07-22T09:55:41;101955.0;;;21.56;57.53
48892;BME280;50130;52.150;5.236;2022-07-22T09:57:27;101953.0;;;21.5;56.44
48892;BME280;50130;52.150;5.236;2022-07-22T09:59:14;101952.0;;;21.53;57.04
48892;BME280;50130;52.150;5.236;2022-07-22T10:02:53;101955.0;;;21.62;56.89
48892;BME280;50130;52.150;5.236;2022-07-22T10:04:44;101953.0;;;21.6;57.2
48892;BME280;50130;52.150;5.236;2022-07-22T10:06:34;101955.0;;;21.53;57.22
48892;BME280;50130;52.150;5.236;2022-07-22T10:08:24;101952.0;;;21.46;56.1
48892;BME280;50130;52.150;5.236;2022-07-22T10:10:14;101955.0;;;21.37;58.25
48892;BME280;50130;52.150;5.236;2022-07-22T10:12:02;101958.0;;;21.4;54.38
48892;BME280;50130;52.150;5.236;2022-07-22T10:13:48;101959.0;;;21.51;54.55
48892;BME280;50130;52.150;5.236;2022-07-22T10:17:24;101962.0;;;21.52;56.68
48892;BME280;50130;52.150;5.236;2022-07-22T10:19:11;101964.0;;;21.69;56.82
48892;BME280;50130;52.150;5.236;2022-07-22T10:21:03;101964.0;;;21.59;60.26
48892;BME280;50130;52.150;5.236;2022-07-22T10:22:54;101961.0;;;21.59;57.7
48892;BME280;50130;52.150;5.236;2022-07-22T10:24:59;101964.0;;;21.57;58.04
48892;BME280;50130;52.150;5.236;2022-07-22T10:26:47;101967.0;;;21.5;58.23
48892;BME280;50130;52.150;5.236;2022-07-22T10:28:36;101968.0;;;21.49;56.87
48892;BME280;50130;52.150;5.236;2022-07-22T10:32:22;101970.0;;;21.59;57.24
48892;BME280;50130;52.150;5.236;2022-07-22T10:34:09;101970.0;;;21.63;58.05
48892;BME280;50130;52.150;5.236;2022-07-22T10:35:58;101957.0;;;21.58;57.8
48892;BME280;50130;52.150;5.236;2022-07-22T10:37:48;101955.0;;;21.53;55.57
48892;BME280;50130;52.150;5.236;2022-07-22T10:40:09;101953.0;;;21.5;56.35
48892;BME280;50130;52.150;5.236;2022-07-22T10:41:56;101957.0;;;21.54;56.49
48892;BME280;50130;52.150;5.236;2022-07-22T10:43:46;101955.0;;;21.55;57.81
48892;BME280;50130;52.150;5.236;2022-07-22T10:45:33;101959.0;;;21.54;57.6
48892;BME280;50130;52.150;5.236;2022-07-22T10:47:51;101956.0;;;21.47;56.45
48892;BME280;50130;52.150;5.236;2022-07-22T10:49:38;101959.0;;;21.49;56.81
48892;BME280;50130;52.150;5.236;2022-07-22T10:51:26;101955.0;;;21.5;57.72
48892;BME280;50130;52.150;5.236;2022-07-22T10:55:19;101962.0;;;21.49;55.62
48892;BME280;50130;52.150;5.236;2022-07-22T10:57:05;101965.0;;;21.61;56.57
48892;BME280;50130;52.150;5.236;2022-07-22T10:58:54;101962.0;;;21.72;56.08
48892;BME280;50130;52.150;5.236;2022-07-22T11:00:43;101958.0;;;21.75;55.68
48892;BME280;50130;52.150;5.236;2022-07-22T11:02:30;101952.0;;;21.82;57.35
48892;BME280;50130;52.150;5.236;2022-07-22T11:04:22;101957.0;;;22.08;57.39
48892;BME280;50130;52.150;5.236;2022-07-22T11:06:13;101955.0;;;22.41;56.65
48892;BME280;50130;52.150;5.236;2022-07-22T11:08:08;101953.0;;;22.57;55.66
48892;BME280;50130;52.150;5.236;2022-07-22T11:11:55;101952.0;;;22.59;54.58